• Join FlightAware (Why Join?)
  • Login
  • US Flag 
03:18AM EDT


 

Airport Tracker/Info


-or-


 

Live Flight TrackerFlight Track Log ✈ AWE3202 ✈ 14-Oct-2013 ✈ KJAX - KDCA

Flight Track Log - Related Links

Times and Time Zones

All times are in EDT time to prevent confusion due to time zone crossing. See the AWE3202 flight status page for this flight to view local times or setup timezone preferences in your user account.

Time Position Orientation Groundspeed Altitude Reporting Facility
EDT Latitude Longitude Course Direction KTS MPH feet Rate Location/Type
06:58PM 30.5069 -81.6703 51° Northeast 158 182 800  Level Jacksonville Center
06:59PM 30.5108 -81.6411 81° East 160 184 1,900 2,040 Climbing Jacksonville Center
07:00PM 30.5356 -81.5878 62° Northeast 186 214 4,000 2,460 Climbing Jacksonville Center
07:01PM 30.7829 -81.5431 33° Northeast  Level Estimated
07:01PM 30.6044 -81.5964 354° North 173 199 6,900  Level Jacksonville Center
07:02PM 30.8792 -81.4946 19° North  Level Estimated
07:02PM 30.6819 -81.6100 351° North 209 241 9,700  Level Jacksonville Center
07:03PM 30.9754 -81.4461 19° North  Level Estimated
07:03PM 30.7633 -81.6233 352° North 262 302 11,700  Level Jacksonville Center
07:04PM 31.0420 -81.3515 51° Northeast  Level FlightAware Approximate
07:04PM 30.8533 -81.6367 353° North 301 346 14,200  Level Jacksonville Center
07:05PM 30.9450 -81.6208 North 324 373 16,300 2,160 Climbing Jacksonville Center
07:06PM 31.0386 -81.5881 17° North 335 386 18,600 2,100 Climbing Jacksonville Center
07:07PM 31.1303 -81.5578 16° North 341 392 20,500 1,980 Climbing Jacksonville Center
07:08PM 31.2258 -81.5272 15° North 346 398 22,600 1,680 Climbing Jacksonville Center
07:09PM 31.3194 -81.4797 23° Northeast 346 398 23,900 1,200 Climbing Jacksonville Center
07:10PM 31.4061 -81.4103 34° Northeast 372 428 25,000 540 Climbing Jacksonville Center
07:11PM 31.4953 -81.3478 31° Northeast 391 450 25,000  Level Jacksonville Center
07:12PM 31.6008 -81.2728 31° Northeast 402 463 25,000  Level Jacksonville Center
07:13PM 31.6958 -81.2006 33° Northeast 402 463 25,000  Level Jacksonville Center
07:14PM 31.7828 -81.1378 32° Northeast 402 463 25,000  Level Jacksonville Center
07:15PM 31.8881 -81.0600 32° Northeast 402 463 25,000  Level Jacksonville Center
07:16PM 31.9750 -80.9969 32° Northeast 402 463 25,000  Level Jacksonville Center
07:17PM 32.0781 -80.9239 31° Northeast 402 463 25,000  Level Jacksonville Center
07:18PM 32.1731 -80.8531 32° Northeast 392 451 25,000  Level Jacksonville Center
07:19PM 32.2619 -80.7894 31° Northeast 402 463 25,000  Level Jacksonville Center
07:20PM 32.3628 -80.7111 33° Northeast 397 457 25,000  Level Jacksonville Center
07:21PM 32.4597 -80.6397 32° Northeast 402 463 25,000  Level Jacksonville Center
07:22PM 32.5544 -80.5683 32° Northeast 402 463 25,000  Level Jacksonville Center
07:23PM 32.6511 -80.4969 32° Northeast 407 468 25,000  Level Jacksonville Center
07:24PM 32.7478 -80.4250 32° Northeast 401 461 25,000  Level Jacksonville Center
07:25PM 32.8444 -80.3533 32° Northeast 401 461 25,000  Level Jacksonville Center
07:26PM 32.9369 -80.2814 33° Northeast 401 461 25,000  Level Jacksonville Center
07:27PM 33.0256 -80.2194 30° Northeast 408 470 25,000  Level Jacksonville Center
07:28PM 33.1342 -80.1342 33° Northeast 403 464 25,000  Level Jacksonville Center
07:29PM 33.2183 -80.0694 33° Northeast 403 464 25,000  Level Jacksonville Center
07:30PM 33.3128 -79.9969 33° Northeast 403 464 25,000  Level Jacksonville Center
07:31PM 33.4072 -79.9267 32° Northeast 403 464 25,000  Level Jacksonville Center
07:32PM 33.5014 -79.8539 33° Northeast 403 464 25,000  Level Jacksonville Center
07:33PM 33.5978 -79.7808 32° Northeast 408 470 25,000  Level Jacksonville Center
07:34PM 33.6919 -79.7075 33° Northeast 408 470 25,000  Level Jacksonville Center
07:35PM 33.7881 -79.6342 32° Northeast 408 470 25,000  Level Jacksonville Center
07:36PM 33.8822 -79.5631 32° Northeast 408 470 25,000  Level Jacksonville Center
07:37PM 33.9783 -79.4892 33° Northeast 408 470 25,000  Level Jacksonville Center
07:38PM 34.0764 -79.4103 34° Northeast 402 463 25,000  Level Jacksonville Center
07:39PM 34.1744 -79.3361 32° Northeast 397 457 25,000  Level Jacksonville Center
07:41PM 34.3464 -79.2164 30° Northeast 395 455 25,000  Level Washington Center
07:42PM 34.4483 -79.1606 24° Northeast 395 455 25,000  Level Washington Center
07:43PM 34.5503 -79.0994 26° Northeast 395 455 25,000  Level Washington Center
07:44PM 34.6542 -79.0408 25° Northeast 400 460 25,000  Level Washington Center
07:45PM 34.7561 -78.9819 25° Northeast 400 460 25,000  Level Washington Center
07:46PM 34.8578 -78.9228 26° Northeast 400 460 25,000  Level Washington Center
07:47PM 34.9594 -78.8636 25° Northeast 400 460 25,000  Level Washington Center
07:48PM 35.0614 -78.8019 26° Northeast 400 460 25,000  Level Washington Center
07:49PM 35.1653 -78.7425 25° Northeast 400 460 25,000  Level Washington Center
07:50PM 35.2692 -78.6831 25° Northeast 405 466 25,000  Level Washington Center
07:51PM 35.3708 -78.6206 27° Northeast 405 466 25,000  Level Washington Center
07:52PM 35.4831 -78.5533 26° Northeast 405 466 25,000  Level Washington Center
07:53PM 35.5761 -78.4983 26° Northeast 405 466 25,000  Level Washington Center
07:54PM 35.6906 -78.4308 26° Northeast 413 475 25,000  Level Washington Center
07:55PM 35.7919 -78.3731 25° Northeast 408 470 25,000  Level Washington Center
07:56PM 35.8936 -78.3125 26° Northeast 408 470 25,000  Level Washington Center
07:57PM 35.9953 -78.2492 27° Northeast 408 470 25,000  Level Washington Center
07:58PM 36.0967 -78.1883 26° Northeast 403 464 25,000  Level Washington Center
07:59PM 36.1981 -78.1272 26° Northeast 403 464 25,000  Level Washington Center
08:00PM 36.3608 -78.0294 26° Northeast 403 464 25,000  Level Washington Center
08:01PM 36.4536 -77.9728 26° Northeast 403 464 25,000  Level Washington Center
08:02PM 36.5550 -77.9086 27° Northeast 403 464 25,000  Level Washington Center
08:03PM 36.6564 -77.8469 26° Northeast 403 464 25,000  Level Washington Center
08:04PM 36.7600 -77.7825 26° Northeast 403 464 25,000  Level Washington Center
08:05PM 36.8739 -77.7131 26° Northeast 411 473 25,000  Level Washington Center
08:06PM 36.9750 -77.6483 27° Northeast 411 473 25,000  Level Washington Center
08:07PM 37.0822 -77.6017 19° North 405 466 25,000  Level Washington Center
08:08PM 37.1936 -77.5603 16° North 405 466 25,000 -360 Level Washington Center
08:09PM 37.3025 -77.5214 16° North 399 459 24,400 -1,140 Descending Washington Center
08:10PM 37.4097 -77.4822 16° North 399 459 22,800 -1,500 Descending Washington Center
08:11PM 37.4936 -77.4528 16° North 399 459 21,500 -1,500 Descending Washington Center
08:12PM 37.6067 -77.4111 16° North 394 453 19,900 -1,560 Descending Washington Center
08:13PM 37.7075 -77.3742 16° North 383 441 18,400 -1,380 Descending Washington Center
08:14PM 37.8061 -77.3369 17° North 377 434 17,200 -1,380 Descending Washington Center
08:15PM 37.9003 -77.2997 17° North 366 421 15,700 -1,440 Descending Washington Center
08:16PM 37.9925 -77.2675 15° North 356 410 14,300 -1,500 Descending Washington Center
08:17PM 38.0933 -77.2328 15° North 343 395 12,700 -1,500 Descending Washington Center
08:18PM 38.1811 -77.2006 16° North 337 388 11,300 -1,380 Descending Washington Center
08:19PM 38.2631 -77.1678 17° North 324 373 10,000 -1,200 Descending Washington Center
08:20PM 38.3322 -77.1294 23° Northeast 295 339 8,900 -1,320 Descending Washington Center
08:21PM 38.4017 -77.0858 26° Northeast 275 316 7,400 -1,320 Descending Washington Center
08:22PM 38.4647 -77.0422 28° Northeast 263 303 6,400 -900 Descending Washington Center
08:23PM 38.5194 -77.0114 24° Northeast 237 273 5,600 -1,020 Descending Washington Center
08:24PM 38.5736 -77.0122 359° North 201 231 4,400 -1,200 Descending Washington Center
08:25PM 38.6256 -77.0186 355° North 190 219 3,200 -780 Descending Washington Center
08:27PM 38.7167 -77.0333 North 187 215 2,500 -540 Descending Potomac TRACON
08:28PM 38.7862 -77.0322 North  Level Estimated
08:28PM 38.7500 -77.0333 360° North 166 191 2,000  Level Potomac TRACON
08:29PM 38.8000 -77.0167 15° North 148 170 1,000 -840 Descending Potomac TRACON
08:30PM 38.8333 -77.0167 360° North 133 153 400 -600 Descending Potomac TRACON